Time;durP1;ratioP1;P1;durP2;ratioP2;P2;SDS_P1;SDS_P2;PMS_P1;PMS_P2;Temp;Humidity;BMP_temperature;BMP_pressure;BME280_temperature;BME280_humidity;BME280_pressure;Samples;Min_cycle;Max_cycle;Signal;HPM_P1;HPM_P2
2022/09/26 00:01:27;;;;;;;8.48;5.83;;;;;;;;;;1901055;74;21075;-80
2022/09/26 00:03:58;;;;;;;12.13;7.53;;;;;;;;;;1892106;74;21079;-81
2022/09/26 00:06:29;;;;;;;5.05;3.17;;;;;;;;;;1877871;76;21086;-83
2022/09/26 00:08:59;;;;;;;8.40;5.60;;;;;;;;;;1871680;75;21087;-82
2022/09/26 00:11:31;;;;;;;11.10;7.00;;;;;;;;;;1903085;74;21617;-81
2022/09/26 00:14:02;;;;;;;10.30;7.35;;;;;;;;;;1903191;74;21171;-81
2022/09/26 00:16:32;;;;;;;9.38;6.17;;;;;;;;;;1894615;74;21158;-82
2022/09/26 00:19:03;;;;;;;9.50;6.85;;;;;;;;;;1913401;74;21195;-81
2022/09/26 00:21:34;;;;;;;8.90;5.90;;;;;;;;;;1901397;74;21203;-80
2022/09/26 00:24:04;;;;;;;8.40;5.28;;;;;;;;;;1889751;74;21260;-81
2022/09/26 00:26:35;;;;;;;8.35;4.45;;;;;;;;;;1894074;74;21126;-82
2022/09/26 00:29:07;;;;;;;6.20;4.40;;;;;;;;;;1884636;75;21160;-81
2022/09/26 00:31:38;;;;;;;5.40;2.83;;;;;;;;;;1884445;75;21219;-81
2022/09/26 00:34:10;;;;;;;3.72;2.00;;;;;;;;;;1885482;75;21122;-83
2022/09/26 00:36:40;;;;;;;4.40;2.20;;;;;;;;;;1880919;75;21216;-82
2022/09/26 00:39:11;;;;;;;3.33;2.33;;;;;;;;;;1880170;75;21614;-82
2022/09/26 00:41:42;;;;;;;4.67;2.40;;;;;;;;;;1881634;75;21087;-82
2022/09/26 00:44:13;;;;;;;4.20;2.70;;;;;;;;;;1883587;75;21187;-82
2022/09/26 00:46:44;;;;;;;4.00;2.52;;;;;;;;;;1884169;74;21578;-83
2022/09/26 00:49:16;;;;;;;4.87;2.87;;;;;;;;;;1882222;74;22292;-82
2022/09/26 00:51:47;;;;;;;5.17;3.83;;;;;;;;;;1882162;74;21146;-83
2022/09/26 00:54:18;;;;;;;16.32;9.45;;;;;;;;;;1888008;74;21185;-81
2022/09/26 00:56:49;;;;;;;11.93;3.70;;;;;;;;;;1886876;74;21078;-82
2022/09/26 00:59:21;;;;;;;3.95;2.67;;;;;;;;;;1884257;74;21699;-81
2022/09/26 01:01:52;;;;;;;4.05;2.20;;;;;;;;;;1883212;75;21154;-81
2022/09/26 01:04:24;;;;;;;3.33;2.02;;;;;;;;;;1853566;76;21141;-82
2022/09/26 01:06:56;;;;;;;4.50;2.02;;;;;;;;;;1833898;76;21210;-82
2022/09/26 01:09:27;;;;;;;2.98;1.98;;;;;;;;;;1885042;74;21126;-82
2022/09/26 01:11:58;;;;;;;2.90;1.87;;;;;;;;;;1883625;75;21177;-82
2022/09/26 01:14:29;;;;;;;4.08;1.90;;;;;;;;;;1850481;76;21158;-83
2022/09/26 01:16:59;;;;;;;3.70;1.77;;;;;;;;;;1884179;74;21899;-83
2022/09/26 01:19:29;;;;;;;3.22;2.05;;;;;;;;;;1888564;75;21143;-82
2022/09/26 01:21:58;;;;;;;3.05;1.80;;;;;;;;;;1884985;74;21121;-82
2022/09/26 01:24:30;;;;;;;2.85;1.90;;;;;;;;;;1887383;74;21555;-82
2022/09/26 01:27:01;;;;;;;3.20;2.00;;;;;;;;;;1880948;74;21212;-82
2022/09/26 01:29:32;;;;;;;3.77;1.70;;;;;;;;;;1891213;74;21225;-82
2022/09/26 01:34:37;;;;;;;3.20;1.90;;;;;;;;;;1891934;74;21092;-84
2022/09/26 01:37:08;;;;;;;2.67;1.70;;;;;;;;;;1899267;74;21149;-84
2022/09/26 01:39:40;;;;;;;3.12;1.85;;;;;;;;;;1899610;74;21118;-82
2022/09/26 01:42:12;;;;;;;4.55;1.80;;;;;;;;;;1892928;74;21152;-82
2022/09/26 01:44:43;;;;;;;2.70;1.40;;;;;;;;;;1898223;74;21220;-82
2022/09/26 01:47:13;;;;;;;3.33;1.80;;;;;;;;;;1898425;74;21201;-82
2022/09/26 01:49:44;;;;;;;2.20;1.30;;;;;;;;;;1884870;74;21582;-81
2022/09/26 01:52:15;;;;;;;2.77;1.40;;;;;;;;;;1883035;74;21201;-83
2022/09/26 01:54:47;;;;;;;2.22;1.30;;;;;;;;;;1877241;76;21100;-83
2022/09/26 01:57:18;;;;;;;2.42;1.70;;;;;;;;;;1893323;74;21136;-82
2022/09/26 01:59:49;;;;;;;2.58;1.50;;;;;;;;;;1901762;74;21062;-82
2022/09/26 02:02:22;;;;;;;2.72;1.55;;;;;;;;;;1894425;74;21181;-83
2022/09/26 02:04:53;;;;;;;3.62;2.80;;;;;;;;;;1885044;75;21124;-81
2022/09/26 02:07:25;;;;;;;4.92;3.00;;;;;;;;;;1880820;74;21270;-83
2022/09/26 02:09:58;;;;;;;2.98;2.47;;;;;;;;;;1882147;74;21855;-83
2022/09/26 02:12:31;;;;;;;2.35;1.70;;;;;;;;;;1892888;74;21114;-84
2022/09/26 02:15:02;;;;;;;4.12;1.50;;;;;;;;;;1898467;74;21125;-83
2022/09/26 02:17:33;;;;;;;3.87;1.82;;;;;;;;;;1900310;74;21154;-82
2022/09/26 02:20:04;;;;;;;5.00;2.25;;;;;;;;;;1894776;74;21560;-80
2022/09/26 02:22:34;;;;;;;3.83;1.30;;;;;;;;;;1882472;74;21151;-81
2022/09/26 02:25:05;;;;;;;4.87;1.35;;;;;;;;;;1882065;74;21143;-81
2022/09/26 02:27:35;;;;;;;1.50;0.93;;;;;;;;;;1877719;75;21713;-81
2022/09/26 02:30:06;;;;;;;2.37;1.00;;;;;;;;;;1879902;75;21139;-80
2022/09/26 02:32:37;;;;;;;2.20;0.85;;;;;;;;;;1877419;75;21111;-83
2022/09/26 02:37:40;;;;;;;2.40;1.05;;;;;;;;;;1879017;75;21181;-83
2022/09/26 02:40:10;;;;;;;3.35;1.00;;;;;;;;;;1880984;75;21197;-82
2022/09/26 02:42:41;;;;;;;6.47;1.15;;;;;;;;;;1875675;75;21085;-81
2022/09/26 02:45:13;;;;;;;3.75;0.90;;;;;;;;;;1879464;75;21107;-80
2022/09/26 02:47:44;;;;;;;3.90;1.05;;;;;;;;;;1880052;75;21171;-81
2022/09/26 02:50:14;;;;;;;1.72;0.70;;;;;;;;;;1877857;75;21127;-83
2022/09/26 02:52:46;;;;;;;1.67;0.75;;;;;;;;;;1878246;75;21138;-81
2022/09/26 02:55:17;;;;;;;2.90;0.98;;;;;;;;;;1876298;75;21190;-82
2022/09/26 02:57:48;;;;;;;1.70;0.80;;;;;;;;;;1876000;75;21624;-81
2022/09/26 03:00:20;;;;;;;1.50;0.80;;;;;;;;;;1875650;75;21166;-83
2022/09/26 03:02:51;;;;;;;1.90;0.80;;;;;;;;;;1877756;75;21185;-81
2022/09/26 03:05:22;;;;;;;3.90;0.98;;;;;;;;;;1883784;75;21227;-85
2022/09/26 03:07:52;;;;;;;3.80;0.93;;;;;;;;;;1877329;75;21211;-82
2022/09/26 03:10:24;;;;;;;2.00;0.70;;;;;;;;;;1872646;75;21217;-83
2022/09/26 03:12:55;;;;;;;2.05;0.82;;;;;;;;;;1875476;75;21237;-83
2022/09/26 03:15:26;;;;;;;1.90;1.00;;;;;;;;;;1876688;75;21163;-83
2022/09/26 03:17:56;;;;;;;1.75;0.72;;;;;;;;;;1875853;75;21656;-85
2022/09/26 03:20:26;;;;;;;2.02;1.17;;;;;;;;;;1875664;75;21256;-83
2022/09/26 03:23:15;;;;;;;2.12;1.10;;;;;;;;;;1874799;75;21103;-83
2022/09/26 03:25:45;;;;;;;2.30;1.00;;;;;;;;;;1886322;74;21191;-84
2022/09/26 03:28:37;;;;;;;2.65;1.00;;;;;;;;;;1891382;74;21187;-82
2022/09/26 03:31:25;;;;;;;2.40;1.10;;;;;;;;;;1892259;74;21266;-83
2022/09/26 03:33:57;;;;;;;2.35;1.05;;;;;;;;;;1895997;74;21253;-81
2022/09/26 03:36:41;;;;;;;3.08;1.70;;;;;;;;;;1895542;74;21133;-83
2022/09/26 03:39:11;;;;;;;2.55;1.22;;;;;;;;;;1891278;74;21603;-81
2022/09/26 03:42:00;;;;;;;3.37;1.20;;;;;;;;;;1891128;74;21253;-82
2022/09/26 03:44:33;;;;;;;3.47;1.42;;;;;;;;;;1893771;74;21043;-81
2022/09/26 03:47:04;;;;;;;3.05;1.45;;;;;;;;;;1892233;74;21138;-81
2022/09/26 03:49:35;;;;;;;2.70;1.30;;;;;;;;;;1888690;74;21055;-83
2022/09/26 03:52:06;;;;;;;1.45;0.80;;;;;;;;;;1892917;74;21256;-80
2022/09/26 03:54:36;;;;;;;2.00;1.02;;;;;;;;;;1892555;74;21153;-82
2022/09/26 03:57:06;;;;;;;1.60;1.00;;;;;;;;;;1888075;74;21141;-84
2022/09/26 03:59:36;;;;;;;1.37;0.80;;;;;;;;;;1887924;74;21586;-83
2022/09/26 04:02:06;;;;;;;1.30;0.80;;;;;;;;;;1894946;74;21724;-85
2022/09/26 04:04:37;;;;;;;1.85;1.15;;;;;;;;;;1893840;74;21663;-83
2022/09/26 04:07:07;;;;;;;3.08;1.22;;;;;;;;;;1893282;74;21128;-84
2022/09/26 04:09:37;;;;;;;1.82;1.00;;;;;;;;;;1890639;74;21149;-83
2022/09/26 04:12:07;;;;;;;1.80;1.25;;;;;;;;;;1895715;74;21555;-84
2022/09/26 04:14:37;;;;;;;2.58;1.02;;;;;;;;;;1893163;74;21571;-85
2022/09/26 04:17:07;;;;;;;1.92;1.20;;;;;;;;;;1894535;74;21965;-84
2022/09/26 04:19:38;;;;;;;3.83;1.67;;;;;;;;;;1892484;74;21208;-85
2022/09/26 04:22:08;;;;;;;4.10;1.20;;;;;;;;;;1894198;74;21229;-84
2022/09/26 04:24:38;;;;;;;4.65;1.42;;;;;;;;;;1900935;74;21181;-84
2022/09/26 04:27:08;;;;;;;2.62;1.20;;;;;;;;;;1848313;76;21632;-84
2022/09/26 04:29:38;;;;;;;2.52;1.15;;;;;;;;;;1866044;74;21204;-84
2022/09/26 04:32:08;;;;;;;2.35;1.30;;;;;;;;;;1864048;75;21188;-84
2022/09/26 04:34:39;;;;;;;2.40;1.30;;;;;;;;;;1863601;75;21527;-84
2022/09/26 04:37:09;;;;;;;2.67;1.32;;;;;;;;;;1863890;75;21099;-84
2022/09/26 04:39:39;;;;;;;1.95;1.15;;;;;;;;;;1793448;79;21152;-84
2022/09/26 04:42:09;;;;;;;3.35;1.52;;;;;;;;;;1836271;76;21086;-84
2022/09/26 04:44:39;;;;;;;3.00;1.37;;;;;;;;;;1828436;76;21418;-83
2022/09/26 04:47:10;;;;;;;3.62;1.35;;;;;;;;;;1872249;74;21591;-83
2022/09/26 04:49:40;;;;;;;3.47;1.50;;;;;;;;;;1857495;75;21202;-85
2022/09/26 04:52:10;;;;;;;2.67;1.30;;;;;;;;;;1859023;75;22116;-83
2022/09/26 04:54:40;;;;;;;2.85;1.30;;;;;;;;;;1860757;75;21106;-85
2022/09/26 04:57:12;;;;;;;1.80;1.10;;;;;;;;;;1851505;75;21598;-83
2022/09/26 04:59:43;;;;;;;2.15;1.20;;;;;;;;;;1854959;75;21135;-84
2022/09/26 05:02:13;;;;;;;3.77;1.57;;;;;;;;;;1858114;75;21257;-84
2022/09/26 05:04:45;;;;;;;2.55;1.32;;;;;;;;;;1856730;75;21091;-84
2022/09/26 05:07:17;;;;;;;2.92;1.32;;;;;;;;;;1857718;75;21092;-84
2022/09/26 05:09:47;;;;;;;4.60;1.80;;;;;;;;;;1856373;74;21114;-84
2022/09/26 05:12:17;;;;;;;2.37;1.10;;;;;;;;;;1859632;75;21654;-84
2022/09/26 05:14:48;;;;;;;3.65;1.20;;;;;;;;;;1862481;75;21558;-85
2022/09/26 05:17:20;;;;;;;2.37;1.55;;;;;;;;;;1861010;75;21169;-85
2022/09/26 05:19:49;;;;;;;3.95;1.47;;;;;;;;;;1861905;74;21182;-85
2022/09/26 05:22:19;;;;;;;2.17;1.10;;;;;;;;;;1863782;75;21578;-85
2022/09/26 05:27:23;;;;;;;2.08;1.10;;;;;;;;;;1858032;76;21147;-85
2022/09/26 05:29:55;;;;;;;2.22;1.20;;;;;;;;;;1856449;76;21202;-85
2022/09/26 05:32:24;;;;;;;2.10;1.02;;;;;;;;;;1834864;76;21161;-83
2022/09/26 05:34:55;;;;;;;2.87;0.88;;;30.90;95.30;;;;;;1835855;76;21133;-84
2022/09/26 05:37:28;;;;;;;2.77;1.05;;;30.70;96.00;;;;;;1858776;76;21622;-84
2022/09/26 05:42:31;;;;;;;1.90;1.20;;;30.60;96.90;;;;;;1858825;76;21067;-84
2022/09/26 05:45:02;;;;;;;3.05;1.10;;;30.70;96.10;;;;;;1861057;76;21196;-84
2022/09/26 05:47:35;;;;;;;3.58;1.12;;;30.70;94.60;;;;;;1858603;76;21193;-83
2022/09/26 05:50:09;;;;;;;3.27;1.20;;;30.70;95.20;;;;;;1857822;75;21198;-84
2022/09/26 05:52:39;;;;;;;2.33;1.10;;;30.80;95.90;;;;;;1858895;76;21160;-83
2022/09/26 05:55:10;;;;;;;3.17;1.50;;;30.80;95.50;;;;;;1860377;76;21956;-84
2022/09/26 05:57:44;;;;;;;4.95;1.07;;;30.80;95.40;;;;;;1858651;76;21133;-85
2022/09/26 06:00:14;;;;;;;2.80;1.37;;;30.90;95.70;;;;;;1858836;76;21092;-86
2022/09/26 06:02:45;;;;;;;2.80;1.47;;;30.90;95.60;;;;;;1852738;75;21143;-84
2022/09/26 06:05:16;;;;;;;2.95;1.27;;;30.90;95.90;;;;;;1859435;76;21247;-84
2022/09/26 06:08:01;;;;;;;2.72;1.12;;;30.90;95.70;;;;;;1823817;77;21637;-84
2022/09/26 06:11:02;;;;;;;1.62;1.00;;;30.90;95.50;;;;;;1862097;75;21468;-84
2022/09/26 06:13:58;;;;;;;3.35;1.05;;;30.80;95.50;;;;;;1859205;76;21664;-84
2022/09/26 06:16:53;;;;;;;2.30;1.40;;;30.80;95.10;;;;;;1857115;76;21293;-84
2022/09/26 06:19:23;;;;;;;2.72;1.40;;;30.90;95.90;;;;;;1824658;77;21147;-84
2022/09/26 06:21:54;;;;;;;3.25;1.60;;;30.90;95.40;;;;;;1863298;76;21159;-84
2022/09/26 06:24:25;;;;;;;4.42;1.72;;;30.90;95.00;;;;;;1860712;76;21218;-83
2022/09/26 06:26:56;;;;;;;2.98;1.40;;;30.90;94.80;;;;;;1811843;77;21223;-84
2022/09/26 06:29:27;;;;;;;3.77;1.60;;;30.90;95.00;;;;;;1837469;76;21137;-84
2022/09/26 06:31:58;;;;;;;4.12;2.12;;;30.90;95.30;;;;;;1830974;76;21169;-84
2022/09/26 06:34:29;;;;;;;4.20;2.05;;;30.90;94.10;;;;;;1833260;77;21173;-84
2022/09/26 06:37:00;;;;;;;3.67;2.00;;;30.90;94.30;;;;;;1831394;76;21146;-84
2022/09/26 06:39:34;;;;;;;5.80;2.00;;;31.00;93.90;;;;;;1823598;77;21146;-84
2022/09/26 06:42:07;;;;;;;4.75;1.82;;;31.10;93.80;;;;;;1819092;77;21162;-82
2022/09/26 06:44:36;;;;;;;3.47;1.60;;;31.00;94.60;;;;;;1822489;76;21697;-84
2022/09/26 06:47:07;;;;;;;4.92;1.70;;;31.00;93.10;;;;;;1807588;78;21251;-84
2022/09/26 06:49:39;;;;;;;3.90;1.92;;;31.00;93.70;;;;;;1835350;77;21141;-84
2022/09/26 06:52:10;;;;;;;4.67;1.70;;;31.00;94.00;;;;;;1835729;76;21689;-85
2022/09/26 06:54:41;;;;;;;3.12;1.65;;;30.90;93.90;;;;;;1830168;76;21214;-84
2022/09/26 06:57:13;;;;;;;2.92;1.55;;;30.90;94.50;;;;;;1825034;78;21163;-83
2022/09/26 06:59:44;;;;;;;2.77;1.67;;;30.90;94.00;;;;;;1825910;77;21122;-83
2022/09/26 07:02:15;;;;;;;4.28;1.60;;;30.80;94.10;;;;;;1832900;76;21135;-84
2022/09/26 07:04:46;;;;;;;3.05;1.45;;;30.80;94.70;;;;;;1854681;77;21153;-83
2022/09/26 07:07:18;;;;;;;3.02;1.62;;;30.70;94.50;;;;;;1835760;77;21669;-84
2022/09/26 07:09:49;;;;;;;3.80;1.65;;;30.80;95.50;;;;;;1844326;77;21152;-83
2022/09/26 07:12:21;;;;;;;3.20;1.90;;;30.70;94.70;;;;;;1827335;77;21157;-84
2022/09/26 07:14:59;;;;;;;3.98;1.42;;;30.70;94.80;;;;;;1854652;77;21673;-84
2022/09/26 07:17:30;;;;;;;3.15;1.65;;;30.70;94.70;;;;;;1842057;77;21237;-84
2022/09/26 07:20:02;;;;;;;4.20;1.77;;;30.70;94.60;;;;;;1845876;77;21197;-83
2022/09/26 07:22:44;;;;;;;4.33;1.77;;;30.60;95.00;;;;;;1807294;78;21161;-84
2022/09/26 07:25:15;;;;;;;2.30;1.70;;;30.70;95.00;;;;;;1845263;77;21169;-83
2022/09/26 07:27:50;;;;;;;3.20;1.45;;;30.70;94.80;;;;;;1813115;77;21164;-84
2022/09/26 07:30:22;;;;;;;2.58;1.77;;;30.70;94.60;;;;;;1861365;76;21175;-85
2022/09/26 07:32:54;;;;;;;3.42;1.67;;;30.70;95.20;;;;;;1856537;76;21086;-83
2022/09/26 07:35:27;;;;;;;4.22;1.82;;;30.70;94.40;;;;;;1866547;76;21144;-85
2022/09/26 07:38:03;;;;;;;3.17;1.90;;;30.60;93.90;;;;;;1861362;76;21159;-84
2022/09/26 07:40:34;;;;;;;3.40;1.90;;;30.60;93.90;;;;;;1871826;76;21248;-85
2022/09/26 07:43:10;;;;;;;2.70;1.70;;;30.60;94.40;;;;;;1859390;76;21152;-84
2022/09/26 07:50:47;;;;;;;2.95;2.00;;;30.50;95.20;;;;;;1858343;76;21924;-81
2022/09/26 07:53:18;;;;;;;3.33;1.90;;;30.50;94.40;;;;;;1834112;77;21138;-86
2022/09/26 07:58:22;;;;;;;3.72;2.02;;;30.40;95.40;;;;;;1859094;76;21183;-87
2022/09/26 08:00:53;;;;;;;3.90;1.70;;;30.30;94.80;;;;;;1867594;76;21613;-87
2022/09/26 08:03:27;;;;;;;5.12;2.00;;;30.30;95.10;;;;;;1868952;76;22288;-89
2022/09/26 08:06:00;;;;;;;3.90;2.25;;;30.30;95.30;;;;;;1861106;76;21164;-88
2022/09/26 08:08:31;;;;;;;5.22;1.87;;;30.30;95.20;;;;;;1865178;76;21185;-88
2022/09/26 08:11:04;;;;;;;4.35;1.85;;;30.30;95.60;;;;;;1814344;77;21146;-87
2022/09/26 08:13:35;;;;;;;4.95;2.40;;;30.40;95.90;;;;;;1794780;78;21131;-86
2022/09/26 08:16:06;;;;;;;3.98;1.82;;;30.40;95.70;;;;;;1868577;76;21188;-88
2022/09/26 08:18:37;;;;;;;3.87;2.30;;;30.50;96.10;;;;;;1872102;76;21161;-87
2022/09/26 08:21:11;;;;;;;4.53;2.05;;;30.50;96.10;;;;;;1855206;76;21634;-86
2022/09/26 08:23:42;;;;;;;2.95;1.90;;;30.40;96.00;;;;;;1829238;78;21156;-86
2022/09/26 08:26:14;;;;;;;3.22;1.77;;;30.30;96.20;;;;;;1860047;76;21164;-87
2022/09/26 08:28:45;;;;;;;3.20;2.00;;;30.30;96.20;;;;;;1848969;77;21127;-86
2022/09/26 08:31:16;;;;;;;3.33;2.35;;;30.10;96.40;;;;;;1819501;77;21122;-86
2022/09/26 08:33:48;;;;;;;2.60;1.72;;;30.00;96.30;;;;;;1797040;78;21111;-85
2022/09/26 08:36:19;;;;;;;4.47;1.55;;;29.90;96.20;;;;;;1830386;77;21274;-88
2022/09/26 08:38:50;;;;;;;3.30;1.90;;;29.90;95.80;;;;;;1843198;77;21268;-84
2022/09/26 08:41:24;;;;;;;4.17;1.67;;;29.80;96.90;;;;;;1864113;76;21138;-87
2022/09/26 08:43:57;;;;;;;3.22;1.85;;;29.70;97.40;;;;;;1867955;76;21176;-87
2022/09/26 08:49:08;;;;;;;3.65;1.98;;;29.50;99.20;;;;;;1867756;76;21145;-89
2022/09/26 08:51:38;;;;;;;3.95;2.27;;;29.40;99.10;;;;;;1864406;76;21143;-89
2022/09/26 08:54:10;;;;;;;4.78;1.80;;;29.30;99.20;;;;;;1860271;76;21139;-88
2022/09/26 08:56:43;;;;;;;4.10;1.70;;;29.20;99.00;;;;;;1869592;76;21091;-89
2022/09/26 08:59:18;;;;;;;3.03;1.60;;;29.10;98.90;;;;;;1869591;76;21185;-89
2022/09/26 09:01:51;;;;;;;3.95;1.65;;;29.00;98.90;;;;;;1883416;76;21154;-88
2022/09/26 09:04:26;;;;;;;2.70;1.70;;;28.90;98.60;;;;;;1848278;77;21171;-89
2022/09/26 09:07:02;;;;;;;4.20;2.30;;;28.80;98.90;;;;;;1860227;76;21166;-89
2022/09/26 09:09:33;;;;;;;3.70;2.08;;;28.70;99.20;;;;;;1851232;76;21193;-88
2022/09/26 09:12:09;;;;;;;5.72;2.62;;;28.70;99.90;;;;;;1848321;77;21162;-89
2022/09/26 09:14:46;;;;;;;6.10;2.98;;;28.50;99.90;;;;;;1828167;77;21138;-88
2022/09/26 09:17:23;;;;;;;3.95;2.42;;;28.40;99.90;;;;;;1853739;76;21154;-88
2022/09/26 09:19:58;;;;;;;14.33;6.33;;;28.30;99.90;;;;;;1816707;79;21611;-87
2022/09/26 09:22:30;;;;;;;6.05;3.00;;;28.20;99.90;;;;;;1837412;76;21079;-88
2022/09/26 09:25:03;;;;;;;5.65;3.10;;;28.20;99.90;;;;;;1863780;76;21165;-87
2022/09/26 09:27:37;;;;;;;5.55;2.80;;;28.10;99.90;;;;;;1863618;76;21141;-88
2022/09/26 09:30:13;;;;;;;5.67;3.00;;;28.00;99.90;;;;;;1854688;76;21122;-88
2022/09/26 09:32:50;;;;;;;4.42;2.60;;;27.90;99.90;;;;;;1862327;77;21882;-88
2022/09/26 09:35:23;;;;;;;5.20;2.87;;;27.80;99.90;;;;;;1864726;76;21153;-86
2022/09/26 09:37:57;;;;;;;4.13;2.80;;;27.70;99.90;;;;;;1851347;76;21724;-89
2022/09/26 09:40:29;;;;;;;6.90;2.95;;;27.60;99.90;;;;;;1857010;76;21212;-86
2022/09/26 09:43:08;;;;;;;6.33;2.87;;;27.50;99.90;;;;;;1826114;77;21165;-86
2022/09/26 09:45:41;;;;;;;6.67;3.65;;;27.50;99.90;;;;;;1856905;75;21212;-88
2022/09/26 09:48:13;;;;;;;6.87;3.80;;;27.50;99.90;;;;;;1863724;75;21149;-88
2022/09/26 09:50:45;;;;;;;7.45;4.20;;;27.40;99.90;;;;;;1848118;77;21138;-89
2022/09/26 09:53:18;;;;;;;7.12;3.90;;;27.30;99.90;;;;;;1836945;77;21207;-87
2022/09/26 09:55:51;;;;;;;5.12;3.08;;;27.40;99.90;;;;;;1859957;77;21638;-88
2022/09/26 09:58:24;;;;;;;6.67;2.72;;;27.30;99.90;;;;;;1858283;76;21137;-88
2022/09/26 10:00:57;;;;;;;4.95;3.08;;;27.30;99.90;;;;;;1847683;76;21128;-88
2022/09/26 10:03:31;;;;;;;7.22;3.37;;;27.30;99.90;;;;;;1849181;76;21205;-87
2022/09/26 10:06:04;;;;;;;7.03;3.50;;;27.30;99.90;;;;;;1853417;76;21154;-88
2022/09/26 10:08:40;;;;;;;6.75;3.67;;;27.30;99.90;;;;;;1852209;77;21046;-88
2022/09/26 10:11:13;;;;;;;5.90;3.27;;;27.40;99.90;;;;;;1853804;76;21506;-88
2022/09/26 10:13:45;;;;;;;4.97;2.85;;;27.40;99.90;;;;;;1890921;75;21548;-75
2022/09/26 10:16:16;;;;;;;5.42;3.55;;;27.40;99.90;;;;;;1891063;75;21251;-73
2022/09/26 10:18:49;;;;;;;7.30;3.45;;;27.40;99.90;;;;;;1869348;75;21030;-74
2022/09/26 10:21:21;;;;;;;5.33;3.55;;;27.40;99.90;;;;;;1857383;76;21570;-73
2022/09/26 10:23:52;;;;;;;7.05;3.52;;;27.40;99.90;;;;;;1861070;76;21216;-73
2022/09/26 10:26:33;;;;;;;6.55;3.42;;;27.40;99.90;;;;;;1850419;76;21546;-73
2022/09/26 10:29:01;;;;;;;6.00;3.15;;;27.40;99.90;;;;;;1845304;76;21147;-73
2022/09/26 10:31:35;;;;;;;7.60;3.70;;;27.50;99.90;;;;;;1847001;77;21665;-72
2022/09/26 10:34:09;;;;;;;9.08;3.52;;;27.50;99.90;;;;;;1823516;76;21169;-72
2022/09/26 10:36:41;;;;;;;7.12;3.60;;;27.50;99.90;;;;;;1840947;77;21512;-73
2022/09/26 10:41:48;;;;;;;8.93;4.03;;;27.60;99.90;;;;;;1795204;79;21597;-74
2022/09/26 10:44:21;;;;;;;7.58;3.40;;;27.50;99.90;;;;;;1856118;76;21157;-73
2022/09/26 10:46:58;;;;;;;7.15;4.20;;;27.60;99.90;;;;;;1859821;75;21085;-73
2022/09/26 10:49:47;;;;;;;11.00;4.60;;;27.50;99.90;;;;;;1860853;76;21198;-73
2022/09/26 10:52:24;;;;;;;8.35;5.22;;;27.50;99.90;;;;;;1847744;77;21650;-73
2022/09/26 10:54:56;;;;;;;12.75;5.17;;;27.50;99.90;;;;;;1838603;76;21831;-73
2022/09/26 10:57:44;;;;;;;8.28;4.42;;;27.60;99.90;;;;;;1846594;77;21394;-73
2022/09/26 11:00:14;;;;;;;7.35;4.83;;;27.60;99.90;;;;;;1844931;76;21721;-73
2022/09/26 11:02:50;;;;;;;10.70;4.83;;;27.60;99.90;;;;;;1841747;76;21525;-72
2022/09/26 11:07:55;;;;;;;8.70;3.90;;;27.60;99.90;;;;;;1848287;77;21594;-74
2022/09/26 11:10:31;;;;;;;8.23;4.35;;;27.60;99.90;;;;;;1844829;77;21179;-73
2022/09/26 11:13:03;;;;;;;9.60;4.30;;;27.50;99.90;;;;;;1852389;77;22227;-73
2022/09/26 11:15:35;;;;;;;12.40;5.80;;;27.50;99.90;;;;;;1838496;77;21139;-73
2022/09/26 11:18:11;;;;;;;9.50;4.75;;;27.50;99.90;;;;;;1843462;77;21117;-74
2022/09/26 11:20:44;;;;;;;11.03;5.25;;;27.50;99.90;;;;;;1825112;77;21210;-74
2022/09/26 11:23:15;;;;;;;11.22;4.92;;;27.40;99.90;;;;;;1847489;77;21766;-75
2022/09/26 11:25:49;;;;;;;10.45;4.67;;;27.40;99.90;;;;;;1778053;79;21187;-74
2022/09/26 11:28:24;;;;;;;9.03;4.17;;;27.50;99.90;;;;;;1832108;77;21067;-74
2022/09/26 11:30:57;;;;;;;9.18;4.55;;;27.40;99.90;;;;;;1847706;76;21145;-74
2022/09/26 11:33:29;;;;;;;8.03;5.60;;;27.40;99.90;;;;;;1876187;76;21641;-75
2022/09/26 11:36:02;;;;;;;14.70;5.95;;;27.40;99.90;;;;;;1859116;76;21118;-74
2022/09/26 11:38:37;;;;;;;12.03;6.55;;;27.40;99.90;;;;;;1855040;77;21134;-75
2022/09/26 11:41:09;;;;;;;13.08;6.78;;;27.30;99.90;;;;;;1875148;76;21698;-75
2022/09/26 11:43:43;;;;;;;14.95;8.18;;;27.30;99.90;;;;;;1858854;76;21285;-75
2022/09/26 11:46:17;;;;;;;11.28;6.30;;;27.30;99.90;;;;;;1881550;76;21148;-75
2022/09/26 11:48:50;;;;;;;9.05;6.25;;;27.30;99.90;;;;;;1847353;76;22033;-75
2022/09/26 11:51:22;;;;;;;13.75;5.12;;;27.30;99.90;;;;;;1857590;76;21617;-74
2022/09/26 11:53:56;;;;;;;10.70;4.60;;;27.30;99.90;;;;;;1845574;77;21745;-74
2022/09/26 11:56:30;;;;;;;8.15;4.47;;;27.20;99.90;;;;;;1839442;77;21612;-74
2022/09/26 11:59:04;;;;;;;9.53;4.60;;;27.20;99.90;;;;;;1846197;76;21094;-74
2022/09/26 12:01:37;;;;;;;8.73;4.42;;;27.20;99.90;;;;;;1853127;75;21211;-75
2022/09/26 12:04:23;;;;;;;6.80;4.05;;;27.20;99.90;;;;;;1838798;77;21176;-74
2022/09/26 12:06:56;;;;;;;8.57;3.87;;;27.10;99.90;;;;;;1858397;76;21122;-74
2022/09/26 12:09:29;;;;;;;6.28;3.72;;;27.10;99.90;;;;;;1855533;75;21075;-74
2022/09/26 12:12:03;;;;;;;6.50;4.00;;;27.10;99.90;;;;;;1858096;75;21173;-73
2022/09/26 12:14:37;;;;;;;9.33;4.62;;;27.10;99.90;;;;;;1859224;76;21114;-74
2022/09/26 12:17:11;;;;;;;8.63;4.45;;;27.00;99.90;;;;;;1853922;76;21687;-75
2022/09/26 12:19:44;;;;;;;8.25;4.70;;;27.10;99.90;;;;;;1857516;75;21459;-75
2022/09/26 12:24:52;;;;;;;8.68;4.17;;;27.10;99.90;;;;;;1870794;76;21166;-74
2022/09/26 12:27:25;;;;;;;9.30;3.85;;;27.10;99.90;;;;;;1846948;77;21651;-75
2022/09/26 12:29:58;;;;;;;6.78;4.12;;;27.10;99.90;;;;;;1870408;75;21621;-74
2022/09/26 12:32:32;;;;;;;12.10;4.83;;;27.10;99.90;;;;;;1871081;76;22148;-74
2022/09/26 12:35:06;;;;;;;8.60;4.00;;;27.10;99.90;;;;;;1849519;76;21150;-74
2022/09/26 12:37:40;;;;;;;7.62;3.90;;;27.10;99.90;;;;;;1817136;77;21106;-74
2022/09/26 12:40:11;;;;;;;10.50;4.47;;;27.00;99.90;;;;;;1807358;78;21587;-74
2022/09/26 12:42:44;;;;;;;7.30;4.22;;;27.00;99.90;;;;;;1809654;78;21628;-74
2022/09/26 12:45:17;;;;;;;7.47;4.22;;;27.00;99.90;;;;;;1874346;75;21112;-75
2022/09/26 12:47:53;;;;;;;9.78;4.30;;;27.10;99.90;;;;;;1859171;76;21176;-76
2022/09/26 12:50:29;;;;;;;7.50;3.77;;;27.00;99.90;;;;;;1851647;76;21558;-75
2022/09/26 12:53:02;;;;;;;6.87;3.83;;;27.00;99.90;;;;;;1828420;76;21212;-74
2022/09/26 12:55:35;;;;;;;7.53;4.08;;;26.90;99.90;;;;;;1852058;77;22158;-73
2022/09/26 12:58:08;;;;;;;7.65;4.05;;;27.00;99.90;;;;;;1844154;76;21114;-77
2022/09/26 13:00:41;;;;;;;11.33;3.90;;;26.90;99.90;;;;;;1853104;76;21626;-75
2022/09/26 13:03:15;;;;;;;7.08;3.90;;;26.90;99.90;;;;;;1839621;76;21680;-74
2022/09/26 13:05:49;;;;;;;6.55;4.15;;;27.00;99.90;;;;;;1839151;77;21231;-72
2022/09/26 13:08:23;;;;;;;9.80;4.20;;;26.90;99.90;;;;;;1863920;75;21538;-75
2022/09/26 13:10:57;;;;;;;4.17;2.85;;;26.90;99.90;;;;;;1846548;76;21174;-75
2022/09/26 13:13:30;;;;;;;6.00;2.65;;;26.80;99.90;;;;;;1846332;76;21219;-75
2022/09/26 13:16:03;;;;;;;5.15;1.77;;;26.80;99.90;;;;;;1848202;77;21593;-74
2022/09/26 13:18:43;;;;;;;4.22;2.10;;;26.80;99.90;;;;;;1870789;75;21651;-75
2022/09/26 13:21:12;;;;;;;3.17;1.67;;;26.70;99.90;;;;;;1859332;76;21181;-74
2022/09/26 13:23:47;;;;;;;3.55;1.95;;;26.60;99.90;;;;;;1871028;75;21133;-74
2022/09/26 13:26:24;;;;;;;3.05;1.52;;;26.60;99.90;;;;;;1860983;75;21617;-75
2022/09/26 13:29:01;;;;;;;2.58;1.47;;;26.50;99.90;;;;;;1858985;77;21730;-74
2022/09/26 13:31:34;;;;;;;2.70;1.37;;;26.50;99.90;;;;;;1859846;76;21157;-74
2022/09/26 13:34:07;;;;;;;2.27;1.27;;;26.40;99.90;;;;;;1856327;77;21186;-74
2022/09/26 13:36:42;;;;;;;2.55;1.40;;;26.40;99.90;;;;;;1819154;79;21733;-75
2022/09/26 13:39:13;;;;;;;2.60;1.65;;;26.40;99.90;;;;;;1851512;77;21224;-74
2022/09/26 13:41:47;;;;;;;2.83;1.20;;;26.30;99.90;;;;;;1818165;77;21170;-74
2022/09/26 13:44:20;;;;;;;4.33;1.40;;;26.30;99.90;;;;;;1814286;79;21202;-74
2022/09/26 13:46:54;;;;;;;2.90;1.20;;;26.20;99.90;;;;;;1841470;76;21624;-74
2022/09/26 13:49:28;;;;;;;2.77;1.30;;;26.20;99.90;;;;;;1855818;77;21574;-74
2022/09/26 13:52:02;;;;;;;3.70;1.55;;;26.20;99.90;;;;;;1855422;77;21561;-75
2022/09/26 13:54:36;;;;;;;3.87;1.30;;;26.20;99.90;;;;;;1851754;76;21705;-75
2022/09/26 13:57:09;;;;;;;3.75;1.22;;;26.20;99.90;;;;;;1847148;76;21142;-74
2022/09/26 13:59:45;;;;;;;3.10;1.05;;;26.20;99.90;;;;;;1812471;79;21210;-74
2022/09/26 14:02:17;;;;;;;4.95;1.10;;;26.10;99.90;;;;;;1856125;76;21612;-75
2022/09/26 14:04:51;;;;;;;2.27;0.90;;;26.10;99.90;;;;;;1857239;77;21247;-74
2022/09/26 14:09:59;;;;;;;1.87;0.80;;;26.00;99.90;;;;;;1856922;76;21226;-73
2022/09/26 14:12:42;;;;;;;3.35;0.90;;;25.90;99.90;;;;;;1822730;77;21134;-73
2022/09/26 14:15:16;;;;;;;1.92;0.80;;;25.90;99.90;;;;;;1792514;79;21137;-74
2022/09/26 14:17:46;;;;;;;3.20;0.55;;;25.90;99.90;;;;;;1854060;76;21622;-73
2022/09/26 14:20:19;;;;;;;3.15;0.78;;;25.80;99.90;;;;;;1823788;77;21622;-73
2022/09/26 14:22:52;;;;;;;1.07;0.50;;;25.80;99.90;;;;;;1871760;76;21165;-73
2022/09/26 14:25:27;;;;;;;2.47;0.70;;;25.80;99.90;;;;;;1855930;76;21141;-81
2022/09/26 14:28:03;;;;;;;2.22;0.80;;;25.70;99.90;;;;;;1853030;77;21173;-81